Time;durP1;ratioP1;P1;durP2;ratioP2;P2;SDS_P1;SDS_P2;PMS_P1;PMS_P2;Temp;Humidity;BMP_temperature;BMP_pressure;BME280_temperature;BME280_humidity;BME280_pressure;Samples;Min_cycle;Max_cycle;Signal;HPM_P1;HPM_P2
2022/04/13 00:02:16;;;;;;;30.10;26.88;;;3.60;99.90;4.20;98296.00;;;;4635107;30;87552;-63
2022/04/13 00:04:42;;;;;;;30.85;27.35;;;3.60;99.90;4.10;98303.00;;;;4633126;30;87336;-63
2022/04/13 00:07:08;;;;;;;31.70;28.40;;;3.50;99.90;4.20;98295.00;;;;4634448;30;87531;-63
2022/04/13 00:09:34;;;;;;;30.25;26.67;;;3.50;99.90;4.10;98296.00;;;;4634535;30;87414;-63
2022/04/13 00:12:00;;;;;;;32.72;29.15;;;3.50;99.90;4.20;98297.00;;;;4641449;30;86333;-64
2022/04/13 00:14:26;;;;;;;29.80;26.77;;;3.50;99.90;4.20;98293.00;;;;4640870;30;87077;-63
2022/04/13 00:16:54;;;;;;;30.02;26.95;;;3.50;99.90;4.20;98279.00;;;;4634282;30;87715;-63
2022/04/13 00:19:23;;;;;;;29.45;26.48;;;3.50;99.90;4.20;98296.00;;;;4633814;30;88047;-63
2022/04/13 00:21:50;;;;;;;30.10;26.90;;;3.50;99.90;4.30;98301.00;;;;4633847;30;87017;-63
2022/04/13 00:24:16;;;;;;;28.02;25.02;;;3.50;99.90;4.20;98291.00;;;;4634185;30;87194;-63
2022/04/13 00:26:42;;;;;;;31.45;28.25;;;3.50;99.90;4.20;98286.00;;;;4632730;30;88059;-64
2022/04/13 00:29:09;;;;;;;28.10;25.33;;;3.50;99.90;4.10;98301.00;;;;4632146;30;88576;-63
2022/04/13 00:31:35;;;;;;;29.45;26.40;;;3.50;99.90;4.00;98317.00;;;;4633191;30;88111;-65
2022/04/13 00:34:02;;;;;;;32.15;27.38;;;3.50;99.90;4.10;98297.00;;;;4638206;30;87971;-65
2022/04/13 00:36:28;;;;;;;28.63;25.55;;;3.40;99.90;4.00;98296.00;;;;4633750;30;87185;-64
2022/04/13 00:38:54;;;;;;;29.13;26.10;;;3.40;99.90;3.90;98300.00;;;;4633545;30;87845;-64
2022/04/13 00:41:21;;;;;;;28.05;25.05;;;3.40;99.90;4.00;98306.00;;;;4633845;30;87005;-64
2022/04/13 00:44:03;;;;;;;29.00;26.13;;;3.40;99.90;3.90;98300.00;;;;4634027;30;88115;-63
2022/04/13 00:46:29;;;;;;;;;;;3.40;99.90;3.90;98316.00;;;;4634260;30;87637;-66
2022/04/13 00:48:56;;;;;;;30.95;27.92;;;3.30;99.90;3.90;98303.00;;;;4635234;30;87105;-52
2022/04/13 00:51:22;;;;;;;28.80;26.00;;;3.30;99.90;3.80;98307.00;;;;4633157;30;87126;-53
2022/04/13 00:53:51;;;;;;;30.02;26.92;;;3.30;99.90;3.80;98296.00;;;;4634147;30;87022;-54
2022/04/13 00:56:23;;;;;;;28.95;26.17;;;3.30;99.90;3.90;98297.00;;;;4633635;30;88277;-53
2022/04/13 00:58:54;;;;;;;30.10;26.98;;;3.30;99.90;4.00;98300.00;;;;4618009;30;89106;-55
2022/04/13 01:01:22;;;;;;;31.57;28.33;;;3.30;99.90;3.90;98300.00;;;;4634055;30;86249;-54
2022/04/13 01:03:52;;;;;;;29.33;26.27;;;3.30;99.90;3.90;98303.00;;;;4633506;30;87122;-53
2022/04/13 01:06:20;;;;;;;30.23;27.13;;;3.30;99.90;3.80;98295.00;;;;4633488;30;89094;-54
2022/04/13 01:08:49;;;;;;;31.75;28.42;;;3.30;99.90;3.80;98299.00;;;;4632726;30;87854;-54
2022/04/13 01:11:17;;;;;;;30.23;27.10;;;3.30;99.90;3.80;98299.00;;;;4635199;30;87140;-55
2022/04/13 01:13:44;;;;;;;31.77;28.63;;;3.30;99.90;3.90;98305.00;;;;4641789;30;86991;-53
2022/04/13 01:16:10;;;;;;;32.08;28.45;;;3.30;99.90;3.90;98299.00;;;;4633566;30;87834;-54
2022/04/13 01:18:36;;;;;;;29.20;26.05;;;3.30;99.90;3.80;98305.00;;;;4633165;30;87248;-55
2022/04/13 01:21:03;;;;;;;29.45;26.42;;;3.30;99.90;3.90;98301.00;;;;4633979;30;87562;-52
2022/04/13 01:23:29;;;;;;;29.67;26.65;;;3.30;99.90;4.00;98300.00;;;;4618498;30;87050;-55
2022/04/13 01:25:58;;;;;;;31.60;28.40;;;3.30;99.90;3.80;98293.00;;;;4632325;30;88106;-56
2022/04/13 01:28:24;;;;;;;29.65;26.75;;;3.30;99.90;4.00;98302.00;;;;4630465;30;87055;-55
2022/04/13 01:30:50;;;;;;;30.00;26.90;;;3.30;99.90;3.80;98301.00;;;;4633554;30;87481;-55
2022/04/13 01:33:16;;;;;;;31.73;28.52;;;3.30;99.90;3.80;98295.00;;;;4640998;30;88615;-62
2022/04/13 01:35:42;;;;;;;29.95;27.02;;;3.20;99.90;3.80;98297.00;;;;4632801;30;87653;-63
2022/04/13 01:38:08;;;;;;;31.17;28.08;;;3.20;99.90;3.80;98301.00;;;;4632725;30;87530;-63
2022/04/13 01:40:35;;;;;;;32.92;29.52;;;3.20;99.90;3.80;98302.00;;;;4628713;30;87085;-63
2022/04/13 01:43:01;;;;;;;32.97;29.58;;;3.20;99.90;3.80;98306.00;;;;4632422;30;87113;-63
2022/04/13 01:45:27;;;;;;;30.75;27.75;;;3.20;99.90;3.70;98312.00;;;;4630697;30;87871;-63
2022/04/13 01:47:53;;;;;;;33.17;29.67;;;3.20;99.90;3.70;98310.00;;;;4631626;30;88505;-63
2022/04/13 01:50:20;;;;;;;32.28;29.08;;;3.10;99.90;3.70;98301.00;;;;4633270;30;86525;-63
2022/04/13 01:52:47;;;;;;;33.85;30.42;;;3.10;99.90;3.70;98303.00;;;;4632654;30;87206;-64
2022/04/13 01:55:14;;;;;;;30.85;27.65;;;3.20;99.90;3.80;98309.00;;;;4632715;30;88002;-61
2022/04/13 01:57:41;;;;;;;32.70;29.42;;;3.10;99.90;3.70;98312.00;;;;4630904;30;89188;-61
2022/04/13 02:00:12;;;;;;;30.90;27.67;;;3.10;99.90;3.60;98310.00;;;;4646186;30;87008;-61
2022/04/13 02:02:38;;;;;;;33.35;29.75;;;3.10;99.90;3.70;98313.00;;;;4632796;30;86991;-62
2022/04/13 02:05:05;;;;;;;34.03;30.23;;;3.10;99.90;3.60;98314.00;;;;4632323;30;87745;-62
2022/04/13 02:07:31;;;;;;;33.58;30.25;;;3.10;99.90;3.70;98310.00;;;;4631644;30;87712;-62
2022/04/13 02:09:57;;;;;;;33.45;30.05;;;3.10;99.90;3.70;98311.00;;;;4632414;30;87905;-62
2022/04/13 02:12:23;;;;;;;32.00;28.42;;;3.10;99.90;3.60;98323.00;;;;4634884;30;87916;-63
2022/04/13 02:14:49;;;;;;;32.95;29.45;;;3.10;99.90;3.60;98336.00;;;;4631885;30;87081;-62
2022/04/13 02:17:16;;;;;;;31.95;28.65;;;3.10;99.90;3.50;98320.00;;;;4633367;30;87611;-62
2022/04/13 02:19:46;;;;;;;30.40;26.50;;;3.00;99.90;3.60;98343.00;;;;4632115;30;87486;-61
2022/04/13 02:22:12;;;;;;;30.27;27.30;;;3.00;99.90;3.50;98341.00;;;;4631278;30;87955;-62
2022/04/13 02:24:39;;;;;;;30.48;27.10;;;3.00;99.90;3.50;98330.00;;;;4631782;30;87743;-62
2022/04/13 02:27:07;;;;;;;29.48;26.65;;;3.00;99.90;3.50;98335.00;;;;4631662;30;87506;-61
2022/04/13 02:29:37;;;;;;;30.02;27.13;;;3.00;99.90;3.50;98325.00;;;;4630734;30;87148;-61
2022/04/13 02:32:04;;;;;;;30.80;27.77;;;3.00;99.90;3.50;98340.00;;;;4634682;30;87093;-62
2022/04/13 02:34:31;;;;;;;31.05;28.02;;;3.00;99.90;3.50;98335.00;;;;4637547;30;87829;-62
2022/04/13 02:36:57;;;;;;;31.33;28.40;;;3.00;99.90;3.60;98342.00;;;;4632529;30;87578;-62
2022/04/13 02:39:23;;;;;;;30.40;27.38;;;3.00;99.90;3.60;98334.00;;;;4632592;30;86225;-62
2022/04/13 02:41:49;;;;;;;29.67;26.67;;;3.10;99.90;3.50;98348.00;;;;4631578;30;87528;-62
2022/04/13 02:44:15;;;;;;;29.70;26.90;;;3.10;99.90;3.60;98353.00;;;;4631550;30;87758;-54
2022/04/13 02:46:43;;;;;;;28.35;25.65;;;3.10;99.90;3.60;98348.00;;;;4632015;30;87949;-52
2022/04/13 02:49:11;;;;;;;30.35;27.27;;;3.00;99.90;3.60;98342.00;;;;4632075;30;87381;-53
2022/04/13 02:51:38;;;;;;;28.92;26.23;;;3.10;99.90;3.60;98348.00;;;;4632436;30;87091;-54
2022/04/13 02:54:04;;;;;;;23.60;21.38;;;3.10;99.90;3.50;98361.00;;;;4631027;30;87765;-52
2022/04/13 02:56:30;;;;;;;24.80;22.50;;;3.10;99.90;3.50;98357.00;;;;4631382;30;87352;-56
2022/04/13 02:58:56;;;;;;;25.35;22.98;;;3.10;99.90;3.60;98352.00;;;;4631621;30;87015;-56
2022/04/13 03:01:22;;;;;;;24.15;21.95;;;3.10;99.90;3.60;98348.00;;;;4631891;30;87108;-63
2022/04/13 03:03:49;;;;;;;23.40;21.38;;;3.10;99.90;3.70;98350.00;;;;4631351;30;88302;-64
2022/04/13 03:06:15;;;;;;;22.38;20.27;;;3.10;99.90;3.70;98358.00;;;;4632114;30;87345;-64
2022/04/13 03:08:41;;;;;;;21.60;19.60;;;3.10;99.90;3.70;98352.00;;;;4631721;30;87007;-64
2022/04/13 03:11:08;;;;;;;21.30;19.30;;;3.10;99.90;3.70;98367.00;;;;4631857;30;88408;-64
2022/04/13 03:13:34;;;;;;;21.42;19.33;;;3.10;99.90;3.70;98356.00;;;;4641020;30;87799;-63
2022/04/13 03:16:00;;;;;;;20.85;18.75;;;3.10;99.90;3.70;98363.00;;;;4630888;30;87468;-63
2022/04/13 03:18:26;;;;;;;20.90;18.92;;;3.20;99.90;3.80;98366.00;;;;4631414;30;87309;-63
2022/04/13 03:20:52;;;;;;;20.98;19.02;;;3.20;99.90;3.80;98361.00;;;;4630435;30;87237;-64
2022/04/13 03:23:19;;;;;;;20.73;18.67;;;3.20;99.90;3.90;98360.00;;;;4631042;30;87906;-64
2022/04/13 03:25:45;;;;;;;19.70;17.90;;;3.20;99.90;3.90;98361.00;;;;4633241;30;87062;-63
2022/04/13 03:28:11;;;;;;;20.65;18.55;;;3.20;99.90;3.90;98381.00;;;;4633850;30;86304;-63
2022/04/13 03:30:37;;;;;;;20.40;18.55;;;3.30;99.90;3.80;98368.00;;;;4632294;30;87049;-65
2022/04/13 03:33:03;;;;;;;19.35;17.52;;;3.20;99.90;3.80;98375.00;;;;4637139;30;87740;-64
2022/04/13 03:35:30;;;;;;;20.33;18.33;;;3.20;99.90;3.90;98366.00;;;;4634038;30;88976;-63
2022/04/13 03:37:56;;;;;;;18.70;16.90;;;3.30;99.90;3.90;98386.00;;;;4634011;30;87078;-64
2022/04/13 03:40:23;;;;;;;19.65;17.77;;;3.30;99.90;3.90;98382.00;;;;4635124;30;87014;-64
2022/04/13 03:42:49;;;;;;;20.38;18.45;;;3.30;99.90;3.80;98365.00;;;;4634789;30;87777;-63
2022/04/13 03:45:15;;;;;;;19.95;18.00;;;3.30;99.90;3.90;98386.00;;;;4634108;30;88353;-63
2022/04/13 03:47:42;;;;;;;20.77;18.83;;;3.20;99.90;3.90;98399.00;;;;4634538;30;86980;-64
2022/04/13 03:50:09;;;;;;;19.05;17.35;;;3.30;99.90;4.00;98379.00;;;;4634274;30;87078;-63
2022/04/13 03:52:36;;;;;;;18.73;17.02;;;3.30;99.90;4.00;98391.00;;;;4634668;30;87076;-63
2022/04/13 03:55:08;;;;;;;20.40;18.55;;;3.30;99.90;3.80;98385.00;;;;4634519;30;87057;-64
2022/04/13 03:57:34;;;;;;;20.13;18.33;;;3.30;99.90;3.90;98389.00;;;;4634492;30;87495;-64
2022/04/13 04:00:01;;;;;;;20.20;18.20;;;3.30;99.90;3.80;98386.00;;;;4633708;30;88136;-63
2022/04/13 04:02:27;;;;;;;21.48;19.48;;;3.20;99.90;3.90;98402.00;;;;4634700;30;87943;-64
2022/04/13 04:04:53;;;;;;;21.30;19.30;;;3.20;99.90;3.90;98406.00;;;;4634128;30;88105;-64
2022/04/13 04:07:19;;;;;;;20.60;18.60;;;3.20;99.90;3.90;98405.00;;;;4634169;30;87163;-63
2022/04/13 04:09:45;;;;;;;21.50;19.33;;;3.30;99.90;4.00;98392.00;;;;4633743;30;87210;-64
2022/04/13 04:12:11;;;;;;;21.58;19.60;;;3.30;99.90;3.90;98404.00;;;;4632987;30;89016;-61
2022/04/13 04:14:38;;;;;;;20.98;18.95;;;3.30;99.90;4.00;98386.00;;;;4635684;30;87483;-61
2022/04/13 04:17:04;;;;;;;22.08;19.90;;;3.30;99.90;3.90;98391.00;;;;4633349;30;86330;-63
2022/04/13 04:19:30;;;;;;;21.25;19.33;;;3.30;99.90;3.90;98395.00;;;;4633372;30;87045;-62
2022/04/13 04:21:57;;;;;;;22.15;20.05;;;3.20;99.90;4.00;98398.00;;;;4633579;30;87866;-56
2022/04/13 04:24:23;;;;;;;19.90;18.10;;;3.30;99.90;4.00;98393.00;;;;4631888;30;87981;-54
2022/04/13 04:26:49;;;;;;;20.88;18.95;;;3.30;99.90;4.00;98402.00;;;;4645254;30;88902;-62
2022/04/13 04:29:15;;;;;;;20.92;18.83;;;3.40;99.90;3.90;98404.00;;;;4631505;30;87286;-63
2022/04/13 04:31:51;;;;;;;20.83;18.80;;;3.30;99.90;4.00;98385.00;;;;4632985;30;88702;-64
2022/04/13 04:34:19;;;;;;;19.27;17.30;;;3.30;99.90;3.90;98415.00;;;;4632375;30;87693;-61
2022/04/13 04:36:45;;;;;;;19.38;17.48;;;3.30;99.90;4.10;98399.00;;;;4631656;30;87042;-62
2022/04/13 04:39:12;;;;;;;20.40;18.50;;;3.40;99.90;4.20;98408.00;;;;4633286;30;87092;-61
2022/04/13 04:41:40;;;;;;;18.45;16.70;;;3.50;99.90;4.20;98396.00;;;;4632701;30;87135;-62
2022/04/13 04:44:10;;;;;;;18.38;16.58;;;3.50;99.90;4.10;98400.00;;;;4632429;30;87062;-63
2022/04/13 04:46:37;;;;;;;19.58;17.63;;;3.50;99.90;4.00;98411.00;;;;4632100;30;87134;-62
2022/04/13 04:49:05;;;;;;;19.13;17.33;;;3.50;99.90;4.20;98417.00;;;;4637418;30;89156;-62
2022/04/13 04:51:31;;;;;;;17.30;15.70;;;3.50;99.90;4.20;98410.00;;;;4629741;30;87641;-62
2022/04/13 04:54:01;;;;;;;16.98;15.40;;;3.50;99.90;4.20;98431.00;;;;4631659;30;87895;-62
2022/04/13 04:56:28;;;;;;;16.65;14.95;;;3.60;99.90;4.20;98420.00;;;;4631600;30;87850;-63
2022/04/13 04:58:55;;;;;;;16.42;14.55;;;3.60;99.90;4.30;98416.00;;;;4631563;30;87485;-66
2022/04/13 05:01:21;;;;;;;16.20;14.70;;;3.60;99.90;4.30;98411.00;;;;4632798;30;87678;-62
2022/04/13 05:03:50;;;;;;;17.00;14.30;;;3.70;99.90;4.50;98427.00;;;;4629768;30;88826;-63
2022/04/13 05:06:23;;;;;;;15.55;14.05;;;3.70;99.90;4.50;98411.00;;;;4631884;30;86334;-69
2022/04/13 05:08:51;;;;;;;17.85;16.05;;;3.70;99.90;4.30;98424.00;;;;4632463;30;87000;-64
2022/04/13 05:11:18;;;;;;;15.95;14.35;;;3.70;99.90;4.30;98424.00;;;;4632958;30;89835;-65
2022/04/13 05:13:45;;;;;;;16.92;15.02;;;3.60;99.90;4.20;98438.00;;;;4636789;30;88054;-65
2022/04/13 05:16:13;;;;;;;15.60;14.05;;;3.60;99.90;4.50;98423.00;;;;4631597;30;87136;-65
2022/04/13 05:18:41;;;;;;;16.75;15.05;;;3.70;99.90;4.20;98444.00;;;;4632064;30;87371;-55
2022/04/13 05:21:08;;;;;;;17.65;15.75;;;3.60;99.90;4.20;98440.00;;;;4631147;30;87862;-56
2022/04/13 05:23:35;;;;;;;16.90;15.20;;;3.50;99.90;4.10;98430.00;;;;4632399;30;87391;-56
2022/04/13 05:26:02;;;;;;;17.15;14.75;;;3.50;99.90;4.20;98431.00;;;;4630891;30;87088;-57
2022/04/13 05:28:29;;;;;;;17.77;15.93;;;3.60;99.90;4.20;98433.00;;;;4631296;30;88384;-55
2022/04/13 05:30:56;;;;;;;16.88;14.73;;;3.60;99.90;4.30;98442.00;;;;4631088;30;86801;-53
2022/04/13 05:33:22;;;;;;;17.85;16.02;;;3.70;99.90;4.40;98439.00;;;;4631157;30;88026;-54
2022/04/13 05:35:49;;;;;;;17.67;15.65;;;3.70;99.90;4.40;98453.00;;;;4632343;30;87334;-54
2022/04/13 05:38:16;;;;;;;16.60;15.00;;;3.70;99.90;4.50;98439.00;;;;4632032;30;88401;-51
2022/04/13 05:40:43;;;;;;;17.65;15.85;;;3.80;99.90;4.50;98441.00;;;;4631191;30;90277;-53
2022/04/13 05:43:09;;;;;;;18.25;16.30;;;3.80;99.90;4.60;98449.00;;;;4632460;30;87468;-56
2022/04/13 05:45:35;;;;;;;18.50;16.50;;;3.90;99.90;4.60;98445.00;;;;4632535;30;87114;-56
2022/04/13 05:48:02;;;;;;;17.73;15.73;;;3.90;99.90;4.70;98467.00;;;;4632228;30;87018;-55
2022/04/13 05:50:28;;;;;;;18.48;16.42;;;3.90;99.90;4.80;98452.00;;;;4631925;30;87735;-54
2022/04/13 05:52:54;;;;;;;19.27;15.80;;;4.00;99.90;4.90;98455.00;;;;4632836;30;87670;-53
2022/04/13 05:55:20;;;;;;;19.83;17.42;;;4.10;99.90;4.90;98464.00;;;;4626369;30;86773;-56
2022/04/13 05:57:46;;;;;;;19.67;16.70;;;4.10;99.90;5.00;98469.00;;;;4630804;30;87157;-55
2022/04/13 06:00:13;;;;;;;18.88;16.60;;;4.20;99.90;4.90;98471.00;;;;4632223;30;87654;-55
2022/04/13 06:02:41;;;;;;;21.08;17.27;;;4.20;99.90;5.00;98472.00;;;;4629383;30;88515;-54
2022/04/13 06:05:09;;;;;;;20.23;16.90;;;4.20;99.90;5.00;98463.00;;;;4632427;30;87523;-56
2022/04/13 06:07:36;;;;;;;17.67;15.88;;;4.20;99.90;5.20;98466.00;;;;4631134;30;87205;-53
2022/04/13 06:10:04;;;;;;;18.83;15.98;;;4.30;99.90;5.30;98478.00;;;;4630903;30;89036;-54
2022/04/13 06:12:30;;;;;;;19.83;15.70;;;4.40;99.90;5.20;98470.00;;;;4642303;30;87147;-54
2022/04/13 06:15:12;;;;;;;18.00;15.32;;;4.40;99.90;5.10;98473.00;;;;4632749;30;87390;-56
2022/04/13 06:17:39;;;;;;;16.50;14.18;;;4.30;99.90;5.20;98482.00;;;;4630356;30;87496;-59
2022/04/13 06:20:06;;;;;;;16.88;15.18;;;4.30;99.90;5.10;98475.00;;;;4632224;30;87078;-57
2022/04/13 06:22:37;;;;;;;20.58;15.30;;;4.30;99.90;5.30;98484.00;;;;4632228;30;87549;-54
2022/04/13 06:25:04;;;;;;;16.48;14.43;;;4.40;99.90;5.20;98476.00;;;;4632830;30;87086;-57
2022/04/13 06:27:31;;;;;;;20.25;14.73;;;4.40;99.90;5.20;98481.00;;;;4630195;30;89055;-53
2022/04/13 06:29:57;;;;;;;15.40;13.77;;;4.30;99.90;5.10;98475.00;;;;4631374;30;88103;-54
2022/04/13 06:32:35;;;;;;;16.48;14.77;;;4.20;99.90;4.90;98478.00;;;;4631907;30;89475;-55
2022/04/13 06:35:03;;;;;;;17.33;14.50;;;4.10;99.90;4.90;98493.00;;;;4631983;30;87393;-58
2022/04/13 06:37:29;;;;;;;15.77;14.13;;;4.10;99.90;5.00;98491.00;;;;4631279;30;87058;-55
2022/04/13 06:39:55;;;;;;;19.70;14.70;;;4.20;99.90;4.80;98505.00;;;;4630869;30;89359;-55
2022/04/13 06:42:22;;;;;;;17.20;14.27;;;4.10;99.90;4.90;98503.00;;;;4631591;30;87423;-56
2022/04/13 06:44:53;;;;;;;15.57;13.93;;;4.10;99.90;4.70;98496.00;;;;4632002;30;86648;-55
2022/04/13 06:47:20;;;;;;;18.20;13.73;;;4.00;99.90;4.90;98515.00;;;;4631354;30;88159;-57
2022/04/13 06:49:47;;;;;;;18.02;14.05;;;4.10;99.90;4.80;98525.00;;;;4630862;30;87744;-55
2022/04/13 06:52:14;;;;;;;14.25;12.75;;;4.10;99.90;4.90;98512.00;;;;4630859;30;88354;-57
2022/04/13 06:54:41;;;;;;;16.20;13.50;;;4.10;99.90;4.80;98513.00;;;;4631513;30;87099;-55
2022/04/13 06:57:07;;;;;;;16.35;13.38;;;4.10;99.90;4.90;98535.00;;;;4630822;30;87273;-56
2022/04/13 06:59:34;;;;;;;14.88;12.52;;;4.10;99.90;4.80;98523.00;;;;4629995;30;87563;-53
2022/04/13 07:02:00;;;;;;;14.75;13.18;;;4.10;99.90;5.00;98517.00;;;;4630764;30;87516;-54
2022/04/13 07:04:26;;;;;;;15.95;12.88;;;4.20;99.90;5.10;98506.00;;;;4631166;30;87439;-51
2022/04/13 07:06:52;;;;;;;14.43;12.63;;;4.30;99.90;5.20;98526.00;;;;4631889;30;86914;-52
2022/04/13 07:09:19;;;;;;;16.95;12.40;;;4.30;99.90;5.10;98524.00;;;;4631524;30;87054;-53
2022/04/13 07:11:45;;;;;;;16.35;12.63;;;4.30;99.90;5.00;98522.00;;;;4636222;30;87396;-53
2022/04/13 07:14:11;;;;;;;15.35;11.80;;;4.30;99.90;5.20;98531.00;;;;4634966;30;87445;-53
2022/04/13 07:16:37;;;;;;;14.20;12.68;;;4.30;99.90;5.20;98536.00;;;;4630162;30;89190;-54
2022/04/13 07:19:03;;;;;;;14.35;12.02;;;4.30;99.90;5.20;98549.00;;;;4631148;30;87714;-54
2022/04/13 07:21:30;;;;;;;15.98;12.35;;;4.30;99.90;5.10;98555.00;;;;4630974;30;88235;-57
2022/04/13 07:23:57;;;;;;;16.15;12.32;;;4.30;99.90;5.30;98527.00;;;;4632265;30;87954;-52
2022/04/13 07:26:24;;;;;;;18.92;12.57;;;4.40;99.90;5.30;98547.00;;;;4630318;30;87854;-55
2022/04/13 07:28:50;;;;;;;17.00;12.82;;;4.40;99.90;5.20;98536.00;;;;4631085;30;87667;-56
2022/04/13 07:31:18;;;;;;;14.88;12.25;;;4.40;99.90;5.40;98542.00;;;;4630183;30;88583;-56
2022/04/13 07:33:44;;;;;;;16.27;12.20;;;4.50;99.90;5.60;98541.00;;;;4632493;30;86284;-52
2022/04/13 07:36:12;;;;;;;13.45;12.05;;;4.60;99.90;5.70;98542.00;;;;4631033;30;87093;-52
2022/04/13 07:38:38;;;;;;;23.45;13.27;;;4.80;99.90;5.60;98534.00;;;;4631707;30;87789;-54
2022/04/13 07:41:04;;;;;;;16.45;13.10;;;4.80;99.90;5.80;98548.00;;;;4630578;30;88054;-49
2022/04/13 07:43:31;;;;;;;17.67;13.45;;;4.80;99.90;5.70;98540.00;;;;4630036;30;87116;-51
2022/04/13 07:45:57;;;;;;;15.50;12.98;;;4.90;99.90;5.50;98558.00;;;;4630637;30;87407;-52
2022/04/13 07:48:24;;;;;;;17.90;14.40;;;4.70;99.90;5.60;98551.00;;;;4630210;30;87901;-53
2022/04/13 07:50:50;;;;;;;20.05;14.90;;;4.70;99.90;5.30;98564.00;;;;4630058;30;88249;-55
2022/04/13 07:53:16;;;;;;;18.73;14.38;;;4.50;99.90;5.50;98551.00;;;;4631203;30;86959;-53
2022/04/13 07:55:42;;;;;;;16.13;13.70;;;4.60;99.90;5.60;98557.00;;;;4630956;30;87347;-56
2022/04/13 07:58:08;;;;;;;18.83;13.75;;;4.70;99.90;5.50;98548.00;;;;4631695;30;87003;-56
2022/04/13 08:00:35;;;;;;;16.73;13.98;;;4.60;99.90;5.50;98545.00;;;;4630397;30;87408;-52
2022/04/13 08:03:01;;;;;;;17.10;12.98;;;4.60;99.90;5.60;98555.00;;;;4630914;30;87301;-54
2022/04/13 08:05:27;;;;;;;16.80;12.90;;;4.70;99.90;5.70;98559.00;;;;4630613;30;87899;-55
2022/04/13 08:07:53;;;;;;;16.90;13.65;;;4.80;99.90;5.70;98571.00;;;;4631155;30;87674;-53
2022/04/13 08:10:19;;;;;;;14.82;12.80;;;4.70;99.90;5.80;98570.00;;;;4631305;30;87378;-56
2022/04/13 08:12:48;;;;;;;17.30;13.77;;;4.80;99.90;5.70;98562.00;;;;4643158;30;87038;-55
2022/04/13 08:15:15;;;;;;;16.55;13.30;;;4.80;99.90;5.70;98582.00;;;;4633485;30;87052;-55
2022/04/13 08:17:42;;;;;;;19.70;13.85;;;4.90;99.90;5.80;98569.00;;;;4632784;30;87714;-52
2022/04/13 08:20:13;;;;;;;21.48;13.45;;;4.90;99.90;5.90;98566.00;;;;4633653;30;87986;-51
2022/04/13 08:22:42;;;;;;;15.20;13.35;;;5.00;99.90;5.90;98576.00;;;;4633563;30;87251;-56
2022/04/13 08:25:09;;;;;;;20.27;13.32;;;5.00;99.90;6.00;98580.00;;;;4635422;30;87171;-53
2022/04/13 08:27:35;;;;;;;16.38;12.90;;;5.00;99.90;6.20;98571.00;;;;4632252;30;87714;-51
2022/04/13 08:30:02;;;;;;;17.45;13.50;;;5.10;99.90;6.20;98583.00;;;;4631704;30;88421;-58
2022/04/13 08:32:29;;;;;;;15.30;12.20;;;5.20;99.90;6.20;98582.00;;;;4634377;30;87830;-54
2022/04/13 08:34:55;;;;;;;16.77;13.32;;;5.30;99.90;6.20;98576.00;;;;4647075;30;87194;-54
2022/04/13 08:37:22;;;;;;;18.13;13.20;;;5.30;99.90;6.20;98582.00;;;;4633176;30;88689;-54
2022/04/13 08:39:48;;;;;;;21.50;13.57;;;5.30;99.90;6.20;98602.00;;;;4631562;30;87764;-56
2022/04/13 08:43:05;;;;;;;18.90;13.32;;;5.30;99.90;6.30;98569.00;;;;4631439;30;87587;-52
2022/04/13 08:46:03;;;;;;;17.15;11.98;;;5.30;99.90;6.20;98582.00;;;;4632101;30;87083;-57
2022/04/13 08:48:30;;;;;;;16.38;13.30;;;5.30;99.90;6.30;98584.00;;;;4646473;30;86938;-54
2022/04/13 08:51:03;;;;;;;17.65;13.02;;;5.40;99.90;6.50;98579.00;;;;4633264;30;87402;-54
2022/04/13 08:53:31;;;;;;;17.80;12.18;;;5.40;99.90;6.40;98577.00;;;;4633984;30;86940;-50
2022/04/13 08:55:59;;;;;;;15.73;11.55;;;5.40;99.90;6.20;98590.00;;;;4632832;30;88005;-50
2022/04/13 08:58:59;;;;;;;16.52;12.23;;;5.30;99.90;6.10;98596.00;;;;4633237;30;87721;-56
2022/04/13 09:01:50;;;;;;;18.25;13.25;;;5.20;99.90;6.20;98594.00;;;;4633301;30;87765;-54
2022/04/13 09:04:20;;;;;;;18.52;12.65;;;5.30;99.90;6.20;98590.00;;;;4632505;30;87273;-54
2022/04/13 09:06:48;;;;;;;16.02;12.43;;;5.30;99.90;6.40;98583.00;;;;4632541;30;87438;-56
2022/04/13 09:09:32;;;;;;;14.68;11.55;;;5.50;99.90;6.20;98587.00;;;;4632056;30;88653;-54
2022/04/13 09:11:59;;;;;;;17.95;12.95;;;5.30;99.90;6.40;98589.00;;;;4637217;30;87615;-52
2022/04/13 09:14:29;;;;;;;17.42;12.60;;;5.40;99.90;6.50;98595.00;;;;4640194;30;86425;-50
2022/04/13 09:16:57;;;;;;;17.17;13.73;;;5.50;99.90;6.60;98587.00;;;;4632176;30;87401;-55
2022/04/13 09:19:26;;;;;;;16.65;12.45;;;5.50;99.90;6.20;98596.00;;;;4632916;30;89187;-55
2022/04/13 09:21:53;;;;;;;21.17;13.73;;;5.40;99.90;6.20;98610.00;;;;4631377;30;88502;-55
2022/04/13 09:24:19;;;;;;;18.30;12.75;;;5.30;99.90;6.30;98598.00;;;;4632178;30;87189;-50
2022/04/13 09:26:48;;;;;;;16.42;13.27;;;5.30;99.90;6.20;98615.00;;;;4631849;30;87361;-55
2022/04/13 09:29:14;;;;;;;19.33;12.70;;;5.30;99.90;6.10;98604.00;;;;4630237;30;89577;-53
2022/04/13 09:31:41;;;;;;;17.38;12.70;;;5.20;99.90;6.10;98595.00;;;;4632961;30;87466;-53
2022/04/13 09:34:07;;;;;;;16.23;12.20;;;5.20;99.90;5.90;98601.00;;;;4633888;30;87050;-53
2022/04/13 09:36:34;;;;;;;14.75;11.68;;;5.10;99.90;6.10;98596.00;;;;4632277;30;86988;-49
2022/04/13 09:39:02;;;;;;;18.38;11.75;;;5.20;99.90;5.90;98604.00;;;;4632837;30;86850;-53
2022/04/13 09:41:36;;;;;;;15.93;11.93;;;5.00;99.90;5.80;98604.00;;;;4632680;30;87003;-54
2022/04/13 09:44:15;;;;;;;15.90;12.35;;;5.00;99.90;5.80;98607.00;;;;4654420;30;87485;-54
2022/04/13 09:46:42;;;;;;;18.10;12.30;;;5.00;99.90;5.60;98615.00;;;;4629788;30;88203;-53
2022/04/13 09:49:13;;;;;;;16.85;11.65;;;4.80;99.90;5.90;98610.00;;;;4630957;30;88283;-53
2022/04/13 09:51:47;;;;;;;16.55;11.98;;;5.00;99.90;5.70;98601.00;;;;4632463;30;87578;-51
2022/04/13 09:54:13;;;;;;;16.10;12.85;;;4.90;99.90;5.80;98608.00;;;;4632437;30;87204;-51
2022/04/13 09:56:48;;;;;;;16.15;12.35;;;5.00;99.90;6.00;98619.00;;;;4632387;30;87479;-52
2022/04/13 09:59:27;;;;;;;19.50;12.40;;;5.10;99.90;6.00;98623.00;;;;4631849;30;87771;-55
2022/04/13 10:01:54;;;;;;;16.08;12.07;;;5.20;99.90;5.80;98598.00;;;;4632515;30;87550;-54
2022/04/13 10:04:31;;;;;;;14.48;11.77;;;5.10;99.90;5.90;98609.00;;;;4632521;30;86810;-56
2022/04/13 10:07:18;;;;;;;16.02;12.68;;;5.10;99.90;6.00;98613.00;;;;4628400;30;87265;-55
2022/04/13 10:09:44;;;;;;;14.20;11.32;;;5.20;99.90;6.00;98621.00;;;;4632621;30;87758;-52
2022/04/13 10:12:10;;;;;;;15.95;11.40;;;5.20;99.90;6.00;98630.00;;;;4631357;30;89683;-54
2022/04/13 10:14:38;;;;;;;15.35;11.65;;;5.30;99.90;6.20;98609.00;;;;4641411;30;86976;-53
2022/04/13 10:17:12;;;;;;;15.23;11.40;;;5.40;99.90;6.20;98631.00;;;;4632384;30;87007;-53
2022/04/13 10:19:43;;;;;;;17.17;11.18;;;5.30;99.90;6.30;98618.00;;;;4632307;30;87817;-56
2022/04/13 10:22:09;;;;;;;17.83;12.25;;;5.40;99.90;6.20;98640.00;;;;4630882;30;88361;-54
2022/04/13 10:24:39;;;;;;;18.42;12.63;;;5.30;99.90;6.10;98630.00;;;;4639596;30;87140;-53
2022/04/13 10:27:08;;;;;;;18.60;13.07;;;5.30;99.90;5.90;98630.00;;;;4630925;30;87895;-54
2022/04/13 10:29:43;;;;;;;17.17;11.70;;;5.20;99.90;5.90;98623.00;;;;4631126;30;87078;-56
2022/04/13 10:32:17;;;;;;;16.90;12.50;;;5.10;99.90;6.20;98618.00;;;;4634436;30;87068;-58
2022/04/13 10:34:59;;;;;;;19.15;12.50;;;5.30;99.90;6.10;98622.00;;;;4631027;30;87257;-57
2022/04/13 10:37:26;;;;;;;;;;;5.30;99.90;6.20;98615.00;;;;4630514;30;88034;-56
2022/04/13 10:39:53;;;;;;;14.38;11.68;;;5.30;99.90;6.10;98622.00;;;;4632980;30;87590;-53
2022/04/13 10:42:21;;;;;;;20.02;12.95;;;5.30;99.90;6.30;98629.00;;;;4631793;30;87610;-51
2022/04/13 10:44:59;;;;;;;16.25;12.88;;;5.40;99.90;6.30;98644.00;;;;4631217;30;87175;-54
2022/04/13 10:47:36;;;;;;;19.92;12.70;;;5.40;99.90;6.20;98636.00;;;;4631047;30;87481;-52
2022/04/13 10:50:04;;;;;;;19.80;13.25;;;5.30;99.90;6.00;98648.00;;;;4630867;30;87828;-52
2022/04/13 10:52:42;;;;;;;16.10;13.82;;;5.20;99.90;6.00;98626.00;;;;4631714;30;87519;-57
2022/04/13 10:55:12;;;;;;;21.85;14.40;;;5.10;99.90;6.00;98649.00;;;;4630928;30;86760;-56
2022/04/13 10:58:01;;;;;;;15.90;12.88;;;5.10;99.90;6.00;98642.00;;;;4631059;30;88028;-57
2022/04/13 11:00:34;;;;;;;18.05;13.40;;;5.20;99.90;5.90;98647.00;;;;4630520;30;87597;-54